KGCC/GCC METAR and TAF weather

Enter ICAO airport designator
Station Type Date Time Source
KGCC METAR 2019/10/15 03:53 UTC NOAA

KGCC 150353Z AUTO 33008KT 10SM CLR 02/M01 A3008 RMK AO2 SLP184 T00171011 $


Station Type Date Time Source
KGCC Decoded METAR 2019/10/15 03:53 UTC NOAA

GILLETTE-CAMPBELL CTY AIRPORT , WY, United States (KGCC) 44-20N 105-33W 1320M
Oct 14, 2019 - 11:53 PM EDT / 2019.10.15 0353 UTC
Wind: from the NNW (330 degrees) at 9 MPH (8 KT):0
Visibility: 10 mile(s):0
Sky conditions: clear
Temperature: 35.1 F (1.7 C)
Dew Point: 30.0 F (-1.1 C)
Relative Humidity: 81%
Pressure (altimeter): 30.08 in. Hg (1018 hPa)
ob: KGCC 150353Z AUTO 33008KT 10SM CLR 02/M01 A3008 RMK AO2 SLP184 T00171011
cycle: 4

Station Type Date Time Source
KGCC TAF 2019/10/14 18:22 UTC NOAA

TAF KGCC 141720Z 1418/1518 34016G26KT P6SM SCT200
FM150000 32013KT P6SM SCT200

Example: see airport list